Ty Ty, GA

8:41 AM EDT on July 23, 2014 (GMT -0400)
Forest Lakes (KGATIFTO7) Elev 329 ft | 31.50 °N, 83.44 °W | Change Station

Current weather conditions updated 1 minute ago

Partly Cloudy
Partly Cloudy
75.7 °F
Feels Like 75 °F
N
0.0
Wind Variable Wind from NNE
Gusts 5.0 mph

Today is forecast to be Warmer than yesterday.

Today
High -- | Low -- °F
--% Chance of Precip.
Yesterday
High -- | Low -- °F
Precip. -- in
6:44 AM 8:36 PM
Waning Crescent, 11% visible
Pressure 30.09 in
Visibility 7.0 miles
Clouds Scattered Clouds 400 ft
Heat Index 75 °F
Dew Point 74 °F
Humidity 93%
Rainfall 0.00 in
Snow Depth Not available.
UV 1 out of 12
Pollen 3.90 out of 12
Air Quality Not available.
Flu Activity Not available.
METAR KTMA 231210Z AUTO 00000KT 7SM SCT004 23/23 A3009 RMK AO2 T02310229 TSNO

More Conditions Fewer Conditions

Pressure 30.09 in
Visibility 7.0 miles
Clouds Scattered Clouds 400 ft
Heat Index 75 °F
Dew Point 74 °F
Humidity 93%
Rainfall 0.00 in
Snow Depth Not available.
UV 1 out of 12
Pollen 3.90 out of 12
Air Quality Not available.
Flu Activity Not available.
METAR KTMA 231210Z AUTO 00000KT 7SM SCT004 23/23 A3009 RMK AO2 T02310229 TSNO

More Conditions Fewer Conditions

10-Day Weather Forecast

Almanac

Astronomy

Jul. 23, 2014 Rise Set
Actual Time 6:44 AM EDT 8:36 PM EDT
Civil Twilight 6:17 AM EDT 9:03 PM EDT
Nautical Twilight 5:45 AM EDT 9:35 PM EDT
Astronomical Twilight 5:10 AM EDT 10:10 PM EDT
Moon 4:01 AM EDT 6:05 PM EDT
Length of Visible Light 14h 45m
Length of Day
13h 51m
Tomorrow will be 1m 12s shorter.
Waning Crescent, 11% of the Moon is Illuminated
Today
Waning Crescent
Jul 26
New
Aug 3
First Quarter
Aug 10
Full
Aug 17
Last Quarter

Today's Extremes

State Highs State Lows

Community

WunderPhotos

Upload Photos

1,736,582 photos uploaded!

Nearby

Snow Depth

Station Depth Elevation
No new snow has been reported.

Earthquake Activity

City Distance Mag. Time & Date
No recent earthquake activity has been reported nearby.
Minimum magnitude displayed is 2.5.

Coastal Water Temperatures

Place Temperature
No Stations Reporting

Nearby Weather Stations

Station Location Temp. Heat Index Dew Point Humidity Wind Precip. Elev Updated Type
Forest Lakes, Tifton, GA 75.7 °F 75 °F 74 °F 93% NNE  at  0.0 mph 0.00 in / hr 329 ft 8:40 AM EDT Normal
Wood Triple Lake Road, Tifton, GA 76.6 °F 77 °F 74 °F 93% SSW  at  0.0 mph 0.00 in / hr 322 ft 8:41 AM EDT Normal
APRSWXNET Ashburn GA, Ashburn, GA 74 °F 71 °F 73 °F 97% East  at  0 mph 0.00 in / hr 452 ft 8:03 AM EDT MADIS
Worth County High School, Sylvester, GA 76.9 °F 78 °F 74 °F 91% ENE  at  1.0 mph 0.00 in / hr 436 ft 8:40 AM EDT Normal
City of Moultrie Service Center, Moultrie, GA 75.7 °F 75 °F 74 °F 94% WSW  at  2.0 mph 0.00 in / hr 299 ft 8:31 AM EDT Normal
Adel, Georgia, Adel, GA 81.0 °F 88 °F 78 °F 89% SSW  at  0.0 mph 0.00 in / hr 253 ft 8:41 AM EDT Rapid Fire

Show More Stations Show Fewer Stations